sensor_id;sensor_type;location;lat;lon;timestamp;temperature;humidity
1011;DHT22;494;48.744;10.106;2022-10-29T00:01:44;14.80;49.80
1011;DHT22;494;48.744;10.106;2022-10-29T00:04:15;14.80;49.90
1011;DHT22;494;48.744;10.106;2022-10-29T00:06:47;14.80;49.90
1011;DHT22;494;48.744;10.106;2022-10-29T00:09:16;14.80;49.90
1011;DHT22;494;48.744;10.106;2022-10-29T00:11:54;14.70;50.10
1011;DHT22;494;48.744;10.106;2022-10-29T00:14:23;14.70;50.20
1011;DHT22;494;48.744;10.106;2022-10-29T00:16:52;14.70;50.30
1011;DHT22;494;48.744;10.106;2022-10-29T00:19:24;14.70;50.30
1011;DHT22;494;48.744;10.106;2022-10-29T00:21:53;14.70;50.20
1011;DHT22;494;48.744;10.106;2022-10-29T00:24:22;14.70;50.20
1011;DHT22;494;48.744;10.106;2022-10-29T00:26:54;14.60;50.10
1011;DHT22;494;48.744;10.106;2022-10-29T00:29:22;14.50;50.30
1011;DHT22;494;48.744;10.106;2022-10-29T00:31:51;14.50;50.50
1011;DHT22;494;48.744;10.106;2022-10-29T00:34:20;14.50;50.60
1011;DHT22;494;48.744;10.106;2022-10-29T00:36:51;14.50;50.60
1011;DHT22;494;48.744;10.106;2022-10-29T00:39:19;14.50;50.60
1011;DHT22;494;48.744;10.106;2022-10-29T00:41:48;14.50;50.50
1011;DHT22;494;48.744;10.106;2022-10-29T00:44:27;14.50;50.40
1011;DHT22;494;48.744;10.106;2022-10-29T00:47:08;14.50;50.40
1011;DHT22;494;48.744;10.106;2022-10-29T00:49:44;14.50;50.20
1011;DHT22;494;48.744;10.106;2022-10-29T00:52:17;14.50;50.10
1011;DHT22;494;48.744;10.106;2022-10-29T00:54:49;14.40;49.90
1011;DHT22;494;48.744;10.106;2022-10-29T00:57:22;14.40;50.10
1011;DHT22;494;48.744;10.106;2022-10-29T00:59:54;14.20;50.10
1011;DHT22;494;48.744;10.106;2022-10-29T01:02:23;14.30;50.20
1011;DHT22;494;48.744;10.106;2022-10-29T01:04:54;14.30;50.80
1011;DHT22;494;48.744;10.106;2022-10-29T01:07:25;14.30;50.10
1011;DHT22;494;48.744;10.106;2022-10-29T01:09:54;14.30;50.00
1011;DHT22;494;48.744;10.106;2022-10-29T01:12:34;14.30;49.50
1011;DHT22;494;48.744;10.106;2022-10-29T01:15:19;14.10;49.40
1011;DHT22;494;48.744;10.106;2022-10-29T01:18:05;14.10;49.60
1011;DHT22;494;48.744;10.106;2022-10-29T01:20:56;14.10;49.60
1011;DHT22;494;48.744;10.106;2022-10-29T01:27:48;14.00;49.40
1011;DHT22;494;48.744;10.106;2022-10-29T01:30:45;13.90;49.40
1011;DHT22;494;48.744;10.106;2022-10-29T01:33:35;13.80;49.50
1011;DHT22;494;48.744;10.106;2022-10-29T01:36:21;13.80;49.70
1011;DHT22;494;48.744;10.106;2022-10-29T01:39:03;13.80;49.70
1011;DHT22;494;48.744;10.106;2022-10-29T01:41:41;13.80;49.70
1011;DHT22;494;48.744;10.106;2022-10-29T01:44:28;13.90;49.90
1011;DHT22;494;48.744;10.106;2022-10-29T01:47:08;13.80;49.70
1011;DHT22;494;48.744;10.106;2022-10-29T01:49:42;13.80;49.70
1011;DHT22;494;48.744;10.106;2022-10-29T01:52:14;13.90;49.90
1011;DHT22;494;48.744;10.106;2022-10-29T01:54:46;13.80;49.70
1011;DHT22;494;48.744;10.106;2022-10-29T01:57:27;13.80;49.80
1011;DHT22;494;48.744;10.106;2022-10-29T02:00:00;13.80;49.70
1011;DHT22;494;48.744;10.106;2022-10-29T02:02:46;13.80;49.70
1011;DHT22;494;48.744;10.106;2022-10-29T02:05:31;13.80;49.60
1011;DHT22;494;48.744;10.106;2022-10-29T02:08:12;13.80;49.50
1011;DHT22;494;48.744;10.106;2022-10-29T02:10:54;13.90;49.50
1011;DHT22;494;48.744;10.106;2022-10-29T02:13:31;13.90;49.60
1011;DHT22;494;48.744;10.106;2022-10-29T02:16:10;13.90;49.50
1011;DHT22;494;48.744;10.106;2022-10-29T02:18:43;13.80;49.60
1011;DHT22;494;48.744;10.106;2022-10-29T02:21:22;13.80;49.80
1011;DHT22;494;48.744;10.106;2022-10-29T02:23:51;13.90;49.90
1011;DHT22;494;48.744;10.106;2022-10-29T02:26:20;13.90;49.90
1011;DHT22;494;48.744;10.106;2022-10-29T02:28:49;13.90;50.00
1011;DHT22;494;48.744;10.106;2022-10-29T02:31:18;13.90;50.00
1011;DHT22;494;48.744;10.106;2022-10-29T02:33:48;13.90;50.10
1011;DHT22;494;48.744;10.106;2022-10-29T02:36:17;14.00;50.00
1011;DHT22;494;48.744;10.106;2022-10-29T02:38:46;13.90;49.90
1011;DHT22;494;48.744;10.106;2022-10-29T02:41:15;14.00;49.80
1011;DHT22;494;48.744;10.106;2022-10-29T02:43:43;14.00;49.70
1011;DHT22;494;48.744;10.106;2022-10-29T02:46:14;14.00;49.80
1011;DHT22;494;48.744;10.106;2022-10-29T02:48:48;14.10;49.90
1011;DHT22;494;48.744;10.106;2022-10-29T02:51:18;14.00;49.80
1011;DHT22;494;48.744;10.106;2022-10-29T02:53:46;14.10;49.90
1011;DHT22;494;48.744;10.106;2022-10-29T02:56:15;14.10;49.90
1011;DHT22;494;48.744;10.106;2022-10-29T02:58:44;14.10;49.90
1011;DHT22;494;48.744;10.106;2022-10-29T03:01:13;14.00;49.70
1011;DHT22;494;48.744;10.106;2022-10-29T03:03:42;14.00;49.70
1011;DHT22;494;48.744;10.106;2022-10-29T03:06:17;14.00;49.60
1011;DHT22;494;48.744;10.106;2022-10-29T03:08:47;14.00;49.40
1011;DHT22;494;48.744;10.106;2022-10-29T03:11:16;14.00;49.40
1011;DHT22;494;48.744;10.106;2022-10-29T03:13:44;14.00;49.30
1011;DHT22;494;48.744;10.106;2022-10-29T03:16:13;14.00;49.20
1011;DHT22;494;48.744;10.106;2022-10-29T03:18:42;14.00;49.20
1011;DHT22;494;48.744;10.106;2022-10-29T03:21:12;14.00;49.10
1011;DHT22;494;48.744;10.106;2022-10-29T03:23:41;13.90;48.90
1011;DHT22;494;48.744;10.106;2022-10-29T03:26:10;13.90;48.80
1011;DHT22;494;48.744;10.106;2022-10-29T03:28:39;13.90;48.70
1011;DHT22;494;48.744;10.106;2022-10-29T03:31:08;13.90;48.80
1011;DHT22;494;48.744;10.106;2022-10-29T03:33:36;13.90;48.90
1011;DHT22;494;48.744;10.106;2022-10-29T03:36:06;13.90;48.90
1011;DHT22;494;48.744;10.106;2022-10-29T03:38:37;13.90;49.00
1011;DHT22;494;48.744;10.106;2022-10-29T03:41:06;13.90;49.00
1011;DHT22;494;48.744;10.106;2022-10-29T03:43:37;13.90;49.10
1011;DHT22;494;48.744;10.106;2022-10-29T03:46:07;13.90;49.20
1011;DHT22;494;48.744;10.106;2022-10-29T03:48:36;13.90;49.20
1011;DHT22;494;48.744;10.106;2022-10-29T03:51:05;13.90;49.00
1011;DHT22;494;48.744;10.106;2022-10-29T03:53:36;13.90;49.30
1011;DHT22;494;48.744;10.106;2022-10-29T03:56:06;13.90;49.40
1011;DHT22;494;48.744;10.106;2022-10-29T03:58:34;13.90;49.60
1011;DHT22;494;48.744;10.106;2022-10-29T04:01:06;13.90;49.60
1011;DHT22;494;48.744;10.106;2022-10-29T04:03:37;13.90;49.50
1011;DHT22;494;48.744;10.106;2022-10-29T04:06:09;13.90;49.40
1011;DHT22;494;48.744;10.106;2022-10-29T04:08:41;13.80;49.30
1011;DHT22;494;48.744;10.106;2022-10-29T04:11:11;13.90;49.70
1011;DHT22;494;48.744;10.106;2022-10-29T04:13:40;13.90;49.80
1011;DHT22;494;48.744;10.106;2022-10-29T04:16:09;13.80;49.70
1011;DHT22;494;48.744;10.106;2022-10-29T04:18:40;13.90;49.80
1011;DHT22;494;48.744;10.106;2022-10-29T04:21:09;13.90;49.70
1011;DHT22;494;48.744;10.106;2022-10-29T04:23:59;14.00;49.70
1011;DHT22;494;48.744;10.106;2022-10-29T04:26:48;14.00;49.40
1011;DHT22;494;48.744;10.106;2022-10-29T04:29:37;14.10;49.30
1011;DHT22;494;48.744;10.106;2022-10-29T04:32:05;14.10;49.10
1011;DHT22;494;48.744;10.106;2022-10-29T04:34:34;14.10;49.00
1011;DHT22;494;48.744;10.106;2022-10-29T04:37:03;14.10;48.90
1011;DHT22;494;48.744;10.106;2022-10-29T04:39:33;14.10;48.90
1011;DHT22;494;48.744;10.106;2022-10-29T04:42:02;14.10;49.00
1011;DHT22;494;48.744;10.106;2022-10-29T04:44:31;14.10;49.00
1011;DHT22;494;48.744;10.106;2022-10-29T04:47:00;14.10;49.00
1011;DHT22;494;48.744;10.106;2022-10-29T04:49:29;14.10;49.00
1011;DHT22;494;48.744;10.106;2022-10-29T04:51:58;14.10;48.90
1011;DHT22;494;48.744;10.106;2022-10-29T04:54:27;14.10;48.70
1011;DHT22;494;48.744;10.106;2022-10-29T04:56:57;14.20;48.80
1011;DHT22;494;48.744;10.106;2022-10-29T04:59:26;14.20;48.70
1011;DHT22;494;48.744;10.106;2022-10-29T05:01:55;14.20;48.80
1011;DHT22;494;48.744;10.106;2022-10-29T05:04:23;14.20;48.80
1011;DHT22;494;48.744;10.106;2022-10-29T05:06:54;14.20;48.90
1011;DHT22;494;48.744;10.106;2022-10-29T05:09:23;14.30;48.80
1011;DHT22;494;48.744;10.106;2022-10-29T05:11:52;14.20;48.80
1011;DHT22;494;48.744;10.106;2022-10-29T05:14:22;14.10;48.80
1011;DHT22;494;48.744;10.106;2022-10-29T05:16:51;14.30;48.80
1011;DHT22;494;48.744;10.106;2022-10-29T05:19:19;14.30;48.80
1011;DHT22;494;48.744;10.106;2022-10-29T05:22:09;14.30;48.70
1011;DHT22;494;48.744;10.106;2022-10-29T05:25:46;14.30;48.70
1011;DHT22;494;48.744;10.106;2022-10-29T05:28:18;14.10;48.60
1011;DHT22;494;48.744;10.106;2022-10-29T05:30:53;14.20;48.60
1011;DHT22;494;48.744;10.106;2022-10-29T05:33:33;14.20;48.80
1011;DHT22;494;48.744;10.106;2022-10-29T05:36:10;14.20;49.00
1011;DHT22;494;48.744;10.106;2022-10-29T05:38:40;14.20;49.10
1011;DHT22;494;48.744;10.106;2022-10-29T05:41:11;14.20;49.10
1011;DHT22;494;48.744;10.106;2022-10-29T05:43:40;14.20;49.10
1011;DHT22;494;48.744;10.106;2022-10-29T05:46:10;14.20;49.20
1011;DHT22;494;48.744;10.106;2022-10-29T05:48:38;14.20;49.20
1011;DHT22;494;48.744;10.106;2022-10-29T05:51:07;14.30;49.10
1011;DHT22;494;48.744;10.106;2022-10-29T05:53:36;14.30;49.00
1011;DHT22;494;48.744;10.106;2022-10-29T05:56:06;14.20;48.90
1011;DHT22;494;48.744;10.106;2022-10-29T05:58:35;14.20;49.00
1011;DHT22;494;48.744;10.106;2022-10-29T06:01:05;14.20;49.10
1011;DHT22;494;48.744;10.106;2022-10-29T06:03:37;14.20;48.90
1011;DHT22;494;48.744;10.106;2022-10-29T06:06:06;14.20;48.90
1011;DHT22;494;48.744;10.106;2022-10-29T06:08:35;14.20;49.00
1011;DHT22;494;48.744;10.106;2022-10-29T06:11:04;14.20;49.10
1011;DHT22;494;48.744;10.106;2022-10-29T06:13:33;14.20;49.10
1011;DHT22;494;48.744;10.106;2022-10-29T06:16:02;14.20;49.10
1011;DHT22;494;48.744;10.106;2022-10-29T06:19:07;14.30;49.10
1011;DHT22;494;48.744;10.106;2022-10-29T06:21:38;14.30;49.20
1011;DHT22;494;48.744;10.106;2022-10-29T06:24:07;14.30;49.20
1011;DHT22;494;48.744;10.106;2022-10-29T06:26:36;14.30;49.20
1011;DHT22;494;48.744;10.106;2022-10-29T06:29:05;14.30;49.10
1011;DHT22;494;48.744;10.106;2022-10-29T06:31:34;14.30;49.00
1011;DHT22;494;48.744;10.106;2022-10-29T06:34:02;14.30;49.00
1011;DHT22;494;48.744;10.106;2022-10-29T06:36:33;14.40;48.90
1011;DHT22;494;48.744;10.106;2022-10-29T06:39:01;14.40;48.80
1011;DHT22;494;48.744;10.106;2022-10-29T06:41:30;14.40;48.70
1011;DHT22;494;48.744;10.106;2022-10-29T06:43:59;14.50;48.70
1011;DHT22;494;48.744;10.106;2022-10-29T06:46:27;14.40;48.60
1011;DHT22;494;48.744;10.106;2022-10-29T06:48:56;14.50;48.60
1011;DHT22;494;48.744;10.106;2022-10-29T06:51:25;14.50;48.40
1011;DHT22;494;48.744;10.106;2022-10-29T06:53:55;14.50;48.30
1011;DHT22;494;48.744;10.106;2022-10-29T06:56:23;14.50;48.10
1011;DHT22;494;48.744;10.106;2022-10-29T06:58:52;14.60;48.10
1011;DHT22;494;48.744;10.106;2022-10-29T07:01:20;14.60;47.90
1011;DHT22;494;48.744;10.106;2022-10-29T07:03:53;14.60;47.80
1011;DHT22;494;48.744;10.106;2022-10-29T07:06:22;14.60;47.80
1011;DHT22;494;48.744;10.106;2022-10-29T07:08:55;14.60;47.90
1011;DHT22;494;48.744;10.106;2022-10-29T07:11:23;14.60;48.00
1011;DHT22;494;48.744;10.106;2022-10-29T07:13:52;14.70;48.20
1011;DHT22;494;48.744;10.106;2022-10-29T07:16:20;14.80;48.10
1011;DHT22;494;48.744;10.106;2022-10-29T07:18:49;14.90;48.70
1011;DHT22;494;48.744;10.106;2022-10-29T07:21:20;15.20;49.00
1011;DHT22;494;48.744;10.106;2022-10-29T07:23:49;15.40;47.80
1011;DHT22;494;48.744;10.106;2022-10-29T07:26:23;15.60;46.70
1011;DHT22;494;48.744;10.106;2022-10-29T07:28:54;15.90;46.00
1011;DHT22;494;48.744;10.106;2022-10-29T07:31:35;16.20;44.90
1011;DHT22;494;48.744;10.106;2022-10-29T07:34:03;16.40;43.30
1011;DHT22;494;48.744;10.106;2022-10-29T07:36:35;16.60;42.70
1011;DHT22;494;48.744;10.106;2022-10-29T07:39:04;16.80;41.80
1011;DHT22;494;48.744;10.106;2022-10-29T07:41:34;17.00;40.60
1011;DHT22;494;48.744;10.106;2022-10-29T07:44:03;17.20;39.30
1011;DHT22;494;48.744;10.106;2022-10-29T07:46:33;17.40;38.80
1011;DHT22;494;48.744;10.106;2022-10-29T07:49:03;17.60;38.40
1011;DHT22;494;48.744;10.106;2022-10-29T07:51:32;18.00;37.70
1011;DHT22;494;48.744;10.106;2022-10-29T07:54:02;18.30;37.00
1011;DHT22;494;48.744;10.106;2022-10-29T07:56:31;18.60;35.90
1011;DHT22;494;48.744;10.106;2022-10-29T07:59:02;19.00;35.20
1011;DHT22;494;48.744;10.106;2022-10-29T08:01:35;19.30;33.80
1011;DHT22;494;48.744;10.106;2022-10-29T08:04:04;19.70;32.30
1011;DHT22;494;48.744;10.106;2022-10-29T08:06:33;20.00;31.30
1011;DHT22;494;48.744;10.106;2022-10-29T08:09:03;20.40;30.40
1011;DHT22;494;48.744;10.106;2022-10-29T08:11:33;20.80;28.70
1011;DHT22;494;48.744;10.106;2022-10-29T08:14:06;21.20;28.00
1011;DHT22;494;48.744;10.106;2022-10-29T08:16:36;21.60;26.60
1011;DHT22;494;48.744;10.106;2022-10-29T08:19:05;22.00;25.30
1011;DHT22;494;48.744;10.106;2022-10-29T08:21:35;22.30;24.60
1011;DHT22;494;48.744;10.106;2022-10-29T08:24:05;22.60;23.60
1011;DHT22;494;48.744;10.106;2022-10-29T08:26:35;22.90;22.50
1011;DHT22;494;48.744;10.106;2022-10-29T08:29:06;23.30;21.50
1011;DHT22;494;48.744;10.106;2022-10-29T08:31:35;23.60;21.30
1011;DHT22;494;48.744;10.106;2022-10-29T08:34:04;24.00;20.60
1011;DHT22;494;48.744;10.106;2022-10-29T08:36:37;24.30;20.00
1011;DHT22;494;48.744;10.106;2022-10-29T08:39:05;24.50;19.50
1011;DHT22;494;48.744;10.106;2022-10-29T08:41:40;24.70;19.00
1011;DHT22;494;48.744;10.106;2022-10-29T08:44:45;25.10;17.90
1011;DHT22;494;48.744;10.106;2022-10-29T08:47:26;25.30;18.00
1011;DHT22;494;48.744;10.106;2022-10-29T08:50:02;25.50;17.10
1011;DHT22;494;48.744;10.106;2022-10-29T08:52:39;25.70;16.30
1011;DHT22;494;48.744;10.106;2022-10-29T08:55:33;25.70;16.30
1011;DHT22;494;48.744;10.106;2022-10-29T08:58:12;25.90;15.70
1011;DHT22;494;48.744;10.106;2022-10-29T09:00:54;25.60;16.20
1011;DHT22;494;48.744;10.106;2022-10-29T09:03:27;25.20;17.10
1011;DHT22;494;48.744;10.106;2022-10-29T09:06:03;25.20;17.00
1011;DHT22;494;48.744;10.106;2022-10-29T09:08:53;25.50;16.60
1011;DHT22;494;48.744;10.106;2022-10-29T09:11:54;25.90;15.90
1011;DHT22;494;48.744;10.106;2022-10-29T09:14:43;26.40;15.50
1011;DHT22;494;48.744;10.106;2022-10-29T09:17:35;26.90;14.50
1011;DHT22;494;48.744;10.106;2022-10-29T09:20:20;26.90;14.20
1011;DHT22;494;48.744;10.106;2022-10-29T09:23:03;26.80;14.30
1011;DHT22;494;48.744;10.106;2022-10-29T09:25:46;26.80;14.70
1011;DHT22;494;48.744;10.106;2022-10-29T09:28:28;26.70;14.90
1011;DHT22;494;48.744;10.106;2022-10-29T09:31:09;26.20;15.60
1011;DHT22;494;48.744;10.106;2022-10-29T09:33:49;25.70;16.40
1011;DHT22;494;48.744;10.106;2022-10-29T09:36:27;25.60;17.10
1011;DHT22;494;48.744;10.106;2022-10-29T09:38:59;25.60;17.00
1011;DHT22;494;48.744;10.106;2022-10-29T09:41:32;25.70;16.80
1011;DHT22;494;48.744;10.106;2022-10-29T09:44:06;25.90;16.40
1011;DHT22;494;48.744;10.106;2022-10-29T09:46:50;26.10;16.50
1011;DHT22;494;48.744;10.106;2022-10-29T09:49:36;26.20;16.40
1011;DHT22;494;48.744;10.106;2022-10-29T09:52:15;26.80;15.30
1011;DHT22;494;48.744;10.106;2022-10-29T09:54:48;27.50;14.20
1011;DHT22;494;48.744;10.106;2022-10-29T09:57:20;27.60;13.90
1011;DHT22;494;48.744;10.106;2022-10-29T09:59:53;27.70;13.60
1011;DHT22;494;48.744;10.106;2022-10-29T10:02:29;28.00;13.80
1011;DHT22;494;48.744;10.106;2022-10-29T10:05:06;28.30;13.00
1011;DHT22;494;48.744;10.106;2022-10-29T10:08:05;28.40;13.30
1011;DHT22;494;48.744;10.106;2022-10-29T10:10:38;28.40;13.40
1011;DHT22;494;48.744;10.106;2022-10-29T10:13:19;28.70;13.00
1011;DHT22;494;48.744;10.106;2022-10-29T10:15:55;29.20;12.40
1011;DHT22;494;48.744;10.106;2022-10-29T10:18:37;29.60;11.70
1011;DHT22;494;48.744;10.106;2022-10-29T10:21:10;29.80;11.20
1011;DHT22;494;48.744;10.106;2022-10-29T10:23:43;29.80;11.30
1011;DHT22;494;48.744;10.106;2022-10-29T10:26:28;29.90;10.70
1011;DHT22;494;48.744;10.106;2022-10-29T10:29:13;30.00;11.40
1011;DHT22;494;48.744;10.106;2022-10-29T10:31:43;30.60;10.40
1011;DHT22;494;48.744;10.106;2022-10-29T10:34:16;31.40;9.60
1011;DHT22;494;48.744;10.106;2022-10-29T10:36:51;31.80;8.70
1011;DHT22;494;48.744;10.106;2022-10-29T10:39:26;31.80;8.80
1011;DHT22;494;48.744;10.106;2022-10-29T10:41:59;31.60;9.60
1011;DHT22;494;48.744;10.106;2022-10-29T10:44:31;31.50;9.40
1011;DHT22;494;48.744;10.106;2022-10-29T10:47:05;31.50;9.40
1011;DHT22;494;48.744;10.106;2022-10-29T10:49:35;31.70;9.10
1011;DHT22;494;48.744;10.106;2022-10-29T10:52:14;32.30;8.30
1011;DHT22;494;48.744;10.106;2022-10-29T10:54:54;32.10;8.70
1011;DHT22;494;48.744;10.106;2022-10-29T10:57:27;32.30;8.60
1011;DHT22;494;48.744;10.106;2022-10-29T11:00:03;32.50;8.50
1011;DHT22;494;48.744;10.106;2022-10-29T11:02:40;33.10;7.90
1011;DHT22;494;48.744;10.106;2022-10-29T11:05:17;33.30;7.60
1011;DHT22;494;48.744;10.106;2022-10-29T11:07:53;33.50;7.30
1011;DHT22;494;48.744;10.106;2022-10-29T11:10:35;33.80;7.10
1011;DHT22;494;48.744;10.106;2022-10-29T11:13:12;33.80;6.70
1011;DHT22;494;48.744;10.106;2022-10-29T11:15:48;33.70;7.20
1011;DHT22;494;48.744;10.106;2022-10-29T11:18:28;33.90;7.00
1011;DHT22;494;48.744;10.106;2022-10-29T11:21:06;34.20;6.80
1011;DHT22;494;48.744;10.106;2022-10-29T11:23:46;34.50;6.70
1011;DHT22;494;48.744;10.106;2022-10-29T11:26:29;34.80;5.90
1011;DHT22;494;48.744;10.106;2022-10-29T11:29:12;34.70;6.30
1011;DHT22;494;48.744;10.106;2022-10-29T11:31:51;35.00;6.30
1011;DHT22;494;48.744;10.106;2022-10-29T11:34:29;35.10;5.90
1011;DHT22;494;48.744;10.106;2022-10-29T11:37:16;35.10;6.00
1011;DHT22;494;48.744;10.106;2022-10-29T11:39:51;35.40;5.80
1011;DHT22;494;48.744;10.106;2022-10-29T11:42:26;35.50;5.50
1011;DHT22;494;48.744;10.106;2022-10-29T11:44:57;35.60;5.60
1011;DHT22;494;48.744;10.106;2022-10-29T11:47:36;35.50;5.80
1011;DHT22;494;48.744;10.106;2022-10-29T11:50:23;35.70;5.50
1011;DHT22;494;48.744;10.106;2022-10-29T11:53:06;36.10;5.30
1011;DHT22;494;48.744;10.106;2022-10-29T11:55:47;36.30;5.40
1011;DHT22;494;48.744;10.106;2022-10-29T11:58:28;36.30;4.90
1011;DHT22;494;48.744;10.106;2022-10-29T12:01:12;36.00;5.60
1011;DHT22;494;48.744;10.106;2022-10-29T12:04:05;36.00;5.50
1011;DHT22;494;48.744;10.106;2022-10-29T12:07:20;36.30;5.10
1011;DHT22;494;48.744;10.106;2022-10-29T12:10:20;36.70;4.70
1011;DHT22;494;48.744;10.106;2022-10-29T12:13:00;36.90;4.60
1011;DHT22;494;48.744;10.106;2022-10-29T12:15:41;37.30;4.50
1011;DHT22;494;48.744;10.106;2022-10-29T12:18:20;37.30;4.30
1011;DHT22;494;48.744;10.106;2022-10-29T12:20:58;37.20;4.80
1011;DHT22;494;48.744;10.106;2022-10-29T12:23:44;37.20;5.00
1011;DHT22;494;48.744;10.106;2022-10-29T12:26:25;37.20;5.10
1011;DHT22;494;48.744;10.106;2022-10-29T12:29:03;37.30;4.80
1011;DHT22;494;48.744;10.106;2022-10-29T12:31:47;37.70;4.50
1011;DHT22;494;48.744;10.106;2022-10-29T12:34:26;37.70;4.30
1011;DHT22;494;48.744;10.106;2022-10-29T12:37:06;37.70;4.30
1011;DHT22;494;48.744;10.106;2022-10-29T12:39:45;38.20;4.00
1011;DHT22;494;48.744;10.106;2022-10-29T12:42:18;38.40;4.40
1011;DHT22;494;48.744;10.106;2022-10-29T12:44:59;38.80;3.00
1011;DHT22;494;48.744;10.106;2022-10-29T12:47:46;38.40;4.10
1011;DHT22;494;48.744;10.106;2022-10-29T12:50:43;38.40;3.80
1011;DHT22;494;48.744;10.106;2022-10-29T12:53:28;38.00;4.20
1011;DHT22;494;48.744;10.106;2022-10-29T12:56:03;37.70;4.60
1011;DHT22;494;48.744;10.106;2022-10-29T12:58:46;37.80;4.20
1011;DHT22;494;48.744;10.106;2022-10-29T13:01:44;37.50;4.60
1011;DHT22;494;48.744;10.106;2022-10-29T13:04:35;37.00;5.20
1011;DHT22;494;48.744;10.106;2022-10-29T13:07:21;36.50;5.60
1011;DHT22;494;48.744;10.106;2022-10-29T13:13:21;35.50;6.80
1011;DHT22;494;48.744;10.106;2022-10-29T13:16:06;34.70;7.50
1011;DHT22;494;48.744;10.106;2022-10-29T13:19:04;34.30;8.30
1011;DHT22;494;48.744;10.106;2022-10-29T13:21:56;33.70;8.70
1011;DHT22;494;48.744;10.106;2022-10-29T13:24:30;33.00;10.20
1011;DHT22;494;48.744;10.106;2022-10-29T13:27:01;32.40;10.90
1011;DHT22;494;48.744;10.106;2022-10-29T13:29:44;32.00;11.70
1011;DHT22;494;48.744;10.106;2022-10-29T13:32:34;31.90;11.50
1011;DHT22;494;48.744;10.106;2022-10-29T13:35:13;32.00;11.90
1011;DHT22;494;48.744;10.106;2022-10-29T13:38:12;32.00;11.80
1011;DHT22;494;48.744;10.106;2022-10-29T13:41:08;32.20;11.50
1011;DHT22;494;48.744;10.106;2022-10-29T13:43:42;32.60;10.80
1011;DHT22;494;48.744;10.106;2022-10-29T13:46:46;32.80;10.50
1011;DHT22;494;48.744;10.106;2022-10-29T13:49:23;33.00;10.50
1011;DHT22;494;48.744;10.106;2022-10-29T13:51:59;33.10;10.50
1011;DHT22;494;48.744;10.106;2022-10-29T13:54:36;33.30;10.20
1011;DHT22;494;48.744;10.106;2022-10-29T13:57:16;33.10;10.40
1011;DHT22;494;48.744;10.106;2022-10-29T13:59:49;32.60;11.00
1011;DHT22;494;48.744;10.106;2022-10-29T14:02:29;32.20;11.80
1011;DHT22;494;48.744;10.106;2022-10-29T14:05:13;32.10;12.10
1011;DHT22;494;48.744;10.106;2022-10-29T14:07:50;32.00;12.10
1011;DHT22;494;48.744;10.106;2022-10-29T14:10:28;31.90;12.20
1011;DHT22;494;48.744;10.106;2022-10-29T14:13:09;31.60;13.40
1011;DHT22;494;48.744;10.106;2022-10-29T14:16:01;31.30;13.40
1011;DHT22;494;48.744;10.106;2022-10-29T14:18:32;30.90;13.80
1011;DHT22;494;48.744;10.106;2022-10-29T14:21:05;30.40;14.50
1011;DHT22;494;48.744;10.106;2022-10-29T14:23:34;29.90;15.20
1011;DHT22;494;48.744;10.106;2022-10-29T14:26:14;29.50;16.10
1011;DHT22;494;48.744;10.106;2022-10-29T14:28:48;29.10;16.80
1011;DHT22;494;48.744;10.106;2022-10-29T14:31:18;29.00;17.20
1011;DHT22;494;48.744;10.106;2022-10-29T14:33:53;28.80;16.90
1011;DHT22;494;48.744;10.106;2022-10-29T14:36:28;28.80;17.20
1011;DHT22;494;48.744;10.106;2022-10-29T14:39:02;28.80;17.20
1011;DHT22;494;48.744;10.106;2022-10-29T14:41:38;28.70;17.20
1011;DHT22;494;48.744;10.106;2022-10-29T14:44:10;28.60;17.50
1011;DHT22;494;48.744;10.106;2022-10-29T14:46:50;28.30;18.00
1011;DHT22;494;48.744;10.106;2022-10-29T14:49:25;28.10;18.60
1011;DHT22;494;48.744;10.106;2022-10-29T14:51:56;27.80;18.90
1011;DHT22;494;48.744;10.106;2022-10-29T14:54:30;27.50;19.60
1011;DHT22;494;48.744;10.106;2022-10-29T14:57:04;27.30;20.20
1011;DHT22;494;48.744;10.106;2022-10-29T14:59:38;27.00;20.80
1011;DHT22;494;48.744;10.106;2022-10-29T15:02:13;26.80;21.00
1011;DHT22;494;48.744;10.106;2022-10-29T15:05:03;26.60;21.60
1011;DHT22;494;48.744;10.106;2022-10-29T15:07:47;26.50;22.10
1011;DHT22;494;48.744;10.106;2022-10-29T15:10:21;26.40;22.40
1011;DHT22;494;48.744;10.106;2022-10-29T15:12:53;26.20;22.70
1011;DHT22;494;48.744;10.106;2022-10-29T15:15:25;26.00;23.10
1011;DHT22;494;48.744;10.106;2022-10-29T15:17:59;25.80;23.40
1011;DHT22;494;48.744;10.106;2022-10-29T15:20:35;25.70;23.90
1011;DHT22;494;48.744;10.106;2022-10-29T15:23:18;25.60;24.40
1011;DHT22;494;48.744;10.106;2022-10-29T15:25:53;25.40;24.90
1011;DHT22;494;48.744;10.106;2022-10-29T15:28:28;25.30;25.40
1011;DHT22;494;48.744;10.106;2022-10-29T15:31:00;25.20;25.60
1011;DHT22;494;48.744;10.106;2022-10-29T15:33:30;25.00;26.10
1011;DHT22;494;48.744;10.106;2022-10-29T15:36:01;24.90;26.50
1011;DHT22;494;48.744;10.106;2022-10-29T15:39:08;24.60;27.00
1011;DHT22;494;48.744;10.106;2022-10-29T15:41:48;24.40;27.40
1011;DHT22;494;48.744;10.106;2022-10-29T15:44:38;24.40;27.90
1011;DHT22;494;48.744;10.106;2022-10-29T15:47:19;24.20;28.20
1011;DHT22;494;48.744;10.106;2022-10-29T15:49:53;24.10;28.80
1011;DHT22;494;48.744;10.106;2022-10-29T15:52:25;23.90;29.50
1011;DHT22;494;48.744;10.106;2022-10-29T15:54:59;23.80;29.90
1011;DHT22;494;48.744;10.106;2022-10-29T15:57:27;23.70;30.30
1011;DHT22;494;48.744;10.106;2022-10-29T16:00:03;23.60;31.80
1011;DHT22;494;48.744;10.106;2022-10-29T16:02:32;23.50;33.80
1011;DHT22;494;48.744;10.106;2022-10-29T16:05:01;23.30;34.40
1011;DHT22;494;48.744;10.106;2022-10-29T16:07:31;23.10;35.10
1011;DHT22;494;48.744;10.106;2022-10-29T16:10:00;23.00;36.20
1011;DHT22;494;48.744;10.106;2022-10-29T16:12:29;22.80;36.70
1011;DHT22;494;48.744;10.106;2022-10-29T16:14:59;22.60;37.20
1011;DHT22;494;48.744;10.106;2022-10-29T16:17:28;22.40;37.60
1011;DHT22;494;48.744;10.106;2022-10-29T16:19:56;22.30;38.00
1011;DHT22;494;48.744;10.106;2022-10-29T16:22:27;22.20;38.20
1011;DHT22;494;48.744;10.106;2022-10-29T16:24:56;22.00;38.60
1011;DHT22;494;48.744;10.106;2022-10-29T16:27:25;21.90;38.70
1011;DHT22;494;48.744;10.106;2022-10-29T16:29:53;21.90;38.70
1011;DHT22;494;48.744;10.106;2022-10-29T16:32:23;21.80;38.60
1011;DHT22;494;48.744;10.106;2022-10-29T16:34:52;21.70;38.90
1011;DHT22;494;48.744;10.106;2022-10-29T16:37:20;21.60;39.30
1011;DHT22;494;48.744;10.106;2022-10-29T16:39:49;21.50;39.60
1011;DHT22;494;48.744;10.106;2022-10-29T16:42:29;21.40;39.90
1011;DHT22;494;48.744;10.106;2022-10-29T16:45:00;21.30;40.00
1011;DHT22;494;48.744;10.106;2022-10-29T16:47:30;21.20;40.30
1011;DHT22;494;48.744;10.106;2022-10-29T16:49:59;21.20;40.70
1011;DHT22;494;48.744;10.106;2022-10-29T16:52:28;21.10;40.80
1011;DHT22;494;48.744;10.106;2022-10-29T16:54:58;21.10;40.90
1011;DHT22;494;48.744;10.106;2022-10-29T16:57:27;21.00;40.90
1011;DHT22;494;48.744;10.106;2022-10-29T16:59:55;21.00;41.10
1011;DHT22;494;48.744;10.106;2022-10-29T17:02:24;20.80;41.70
1011;DHT22;494;48.744;10.106;2022-10-29T17:04:54;20.80;41.90